sensor_id;sensor_type;location;lat;lon;timestamp;P1;durP1;ratioP1;P2;durP2;ratioP2
28796;SDS011;24974;54.444;18.560;2022-08-16T19:09:40;30.30;;;25.27;;
28796;SDS011;24974;54.444;18.560;2022-08-16T19:12:11;30.02;;;26.83;;
28796;SDS011;24974;54.444;18.560;2022-08-16T19:14:42;31.70;;;28.23;;
28796;SDS011;24974;54.444;18.560;2022-08-16T19:17:14;30.83;;;27.58;;
28796;SDS011;24974;54.444;18.560;2022-08-16T19:19:45;30.00;;;27.00;;
28796;SDS011;24974;54.444;18.560;2022-08-16T19:22:26;30.45;;;27.30;;
28796;SDS011;24974;54.444;18.560;2022-08-16T19:25:00;29.40;;;26.48;;
28796;SDS011;24974;54.444;18.560;2022-08-16T19:27:31;28.58;;;25.58;;
28796;SDS011;24974;54.444;18.560;2022-08-16T19:30:02;29.38;;;26.33;;
28796;SDS011;24974;54.444;18.560;2022-08-16T19:32:35;26.42;;;23.67;;
28796;SDS011;24974;54.444;18.560;2022-08-16T19:35:09;26.90;;;24.08;;
28796;SDS011;24974;54.444;18.560;2022-08-16T19:37:42;28.00;;;25.00;;
28796;SDS011;24974;54.444;18.560;2022-08-16T19:40:13;27.83;;;23.85;;
28796;SDS011;24974;54.444;18.560;2022-08-16T19:42:44;26.23;;;23.75;;
28796;SDS011;24974;54.444;18.560;2022-08-16T19:45:18;24.40;;;21.85;;
28796;SDS011;24974;54.444;18.560;2022-08-16T19:47:50;24.50;;;21.95;;
28796;SDS011;24974;54.444;18.560;2022-08-16T19:50:21;24.77;;;22.17;;
28796;SDS011;24974;54.444;18.560;2022-08-16T19:52:52;26.17;;;23.58;;
28796;SDS011;24974;54.444;18.560;2022-08-16T19:55:33;27.83;;;24.25;;
28796;SDS011;24974;54.444;18.560;2022-08-16T19:58:08;29.05;;;24.85;;
28796;SDS011;24974;54.444;18.560;2022-08-16T20:00:39;34.83;;;28.27;;
28796;SDS011;24974;54.444;18.560;2022-08-16T20:03:15;34.92;;;31.40;;
28796;SDS011;24974;54.444;18.560;2022-08-16T20:05:49;30.75;;;25.70;;
28796;SDS011;24974;54.444;18.560;2022-08-16T20:08:21;29.63;;;26.52;;
28796;SDS011;24974;54.444;18.560;2022-08-16T20:10:51;30.33;;;27.25;;
28796;SDS011;24974;54.444;18.560;2022-08-16T20:13:22;47.85;;;40.97;;
28796;SDS011;24974;54.444;18.560;2022-08-16T20:15:54;43.67;;;37.08;;
28796;SDS011;24974;54.444;18.560;2022-08-16T20:18:26;56.80;;;42.72;;
28796;SDS011;24974;54.444;18.560;2022-08-16T20:20:56;53.58;;;43.50;;
28796;SDS011;24974;54.444;18.560;2022-08-16T20:23:27;47.17;;;40.05;;
28796;SDS011;24974;54.444;18.560;2022-08-16T20:25:58;26.65;;;23.88;;
28796;SDS011;24974;54.444;18.560;2022-08-16T20:28:29;26.00;;;23.45;;
28796;SDS011;24974;54.444;18.560;2022-08-16T20:31:00;23.98;;;21.52;;
28796;SDS011;24974;54.444;18.560;2022-08-16T20:33:31;24.45;;;21.92;;
28796;SDS011;24974;54.444;18.560;2022-08-16T20:36:02;26.00;;;23.35;;
28796;SDS011;24974;54.444;18.560;2022-08-16T20:38:33;28.70;;;25.60;;
28796;SDS011;24974;54.444;18.560;2022-08-16T20:41:04;28.42;;;25.42;;
28796;SDS011;24974;54.444;18.560;2022-08-16T20:43:35;32.83;;;25.35;;
28796;SDS011;24974;54.444;18.560;2022-08-16T20:46:06;26.65;;;23.42;;
28796;SDS011;24974;54.444;18.560;2022-08-16T20:48:37;27.67;;;24.73;;
28796;SDS011;24974;54.444;18.560;2022-08-16T20:51:08;27.20;;;24.00;;
28796;SDS011;24974;54.444;18.560;2022-08-16T20:53:40;28.17;;;25.27;;
28796;SDS011;24974;54.444;18.560;2022-08-16T20:56:12;28.38;;;25.40;;
28796;SDS011;24974;54.444;18.560;2022-08-16T20:58:43;30.60;;;25.15;;
28796;SDS011;24974;54.444;18.560;2022-08-16T21:01:14;26.40;;;23.80;;
28796;SDS011;24974;54.444;18.560;2022-08-16T21:03:45;26.70;;;24.00;;
28796;SDS011;24974;54.444;18.560;2022-08-16T21:06:15;26.50;;;23.73;;
28796;SDS011;24974;54.444;18.560;2022-08-16T21:08:46;27.52;;;24.15;;
28796;SDS011;24974;54.444;18.560;2022-08-16T21:11:18;29.70;;;25.75;;
28796;SDS011;24974;54.444;18.560;2022-08-16T21:13:50;29.17;;;25.90;;
28796;SDS011;24974;54.444;18.560;2022-08-16T21:16:22;30.55;;;27.30;;
28796;SDS011;24974;54.444;18.560;2022-08-16T21:18:53;26.90;;;24.23;;
28796;SDS011;24974;54.444;18.560;2022-08-16T21:21:24;27.58;;;24.58;;
28796;SDS011;24974;54.444;18.560;2022-08-16T21:23:55;31.38;;;28.15;;
28796;SDS011;24974;54.444;18.560;2022-08-16T21:26:26;30.58;;;27.40;;
28796;SDS011;24974;54.444;18.560;2022-08-16T21:28:57;32.35;;;26.05;;
28796;SDS011;24974;54.444;18.560;2022-08-16T21:31:28;28.73;;;25.70;;
28796;SDS011;24974;54.444;18.560;2022-08-16T21:33:59;25.73;;;23.15;;
28796;SDS011;24974;54.444;18.560;2022-08-16T21:36:31;25.25;;;22.70;;
28796;SDS011;24974;54.444;18.560;2022-08-16T21:39:03;26.73;;;23.50;;
28796;SDS011;24974;54.444;18.560;2022-08-16T21:41:35;29.17;;;24.23;;
28796;SDS011;24974;54.444;18.560;2022-08-16T21:44:07;30.23;;;27.15;;
28796;SDS011;24974;54.444;18.560;2022-08-16T21:46:38;28.90;;;24.33;;
28796;SDS011;24974;54.444;18.560;2022-08-16T21:49:09;26.10;;;23.38;;
28796;SDS011;24974;54.444;18.560;2022-08-16T21:51:40;26.05;;;23.45;;
28796;SDS011;24974;54.444;18.560;2022-08-16T21:54:11;25.17;;;22.50;;
28796;SDS011;24974;54.444;18.560;2022-08-16T21:56:42;26.77;;;23.95;;
28796;SDS011;24974;54.444;18.560;2022-08-16T21:59:12;27.45;;;23.95;;
28796;SDS011;24974;54.444;18.560;2022-08-16T22:01:43;24.83;;;22.33;;
28796;SDS011;24974;54.444;18.560;2022-08-16T22:04:14;27.77;;;24.35;;
28796;SDS011;24974;54.444;18.560;2022-08-16T22:06:45;28.17;;;25.35;;
28796;SDS011;24974;54.444;18.560;2022-08-16T22:09:16;27.25;;;24.45;;
28796;SDS011;24974;54.444;18.560;2022-08-16T22:11:47;28.13;;;24.95;;
28796;SDS011;24974;54.444;18.560;2022-08-16T22:14:18;30.48;;;25.10;;
28796;SDS011;24974;54.444;18.560;2022-08-16T22:16:49;26.63;;;24.02;;
28796;SDS011;24974;54.444;18.560;2022-08-16T22:19:20;30.85;;;24.67;;
28796;SDS011;24974;54.444;18.560;2022-08-16T22:21:51;25.50;;;22.80;;
28796;SDS011;24974;54.444;18.560;2022-08-16T22:24:22;26.50;;;23.90;;
28796;SDS011;24974;54.444;18.560;2022-08-16T22:26:53;27.63;;;24.77;;
28796;SDS011;24974;54.444;18.560;2022-08-16T22:29:24;27.65;;;24.75;;
28796;SDS011;24974;54.444;18.560;2022-08-16T22:31:55;28.80;;;24.83;;
28796;SDS011;24974;54.444;18.560;2022-08-16T22:34:25;29.58;;;26.48;;
28796;SDS011;24974;54.444;18.560;2022-08-16T22:36:56;31.65;;;25.45;;
28796;SDS011;24974;54.444;18.560;2022-08-16T22:39:27;28.05;;;25.05;;
28796;SDS011;24974;54.444;18.560;2022-08-16T22:42:03;32.20;;;26.40;;
28796;SDS011;24974;54.444;18.560;2022-08-16T22:44:37;31.35;;;26.13;;
28796;SDS011;24974;54.444;18.560;2022-08-16T22:47:12;30.73;;;27.52;;
28796;SDS011;24974;54.444;18.560;2022-08-16T22:49:43;31.45;;;28.33;;
28796;SDS011;24974;54.444;18.560;2022-08-16T22:52:14;29.73;;;26.55;;
28796;SDS011;24974;54.444;18.560;2022-08-16T22:54:45;28.10;;;25.20;;
28796;SDS011;24974;54.444;18.560;2022-08-16T22:57:16;31.20;;;26.30;;
28796;SDS011;24974;54.444;18.560;2022-08-16T22:59:47;29.83;;;26.83;;
28796;SDS011;24974;54.444;18.560;2022-08-16T23:02:18;27.60;;;24.75;;
28796;SDS011;24974;54.444;18.560;2022-08-16T23:04:49;29.05;;;26.15;;
28796;SDS011;24974;54.444;18.560;2022-08-16T23:07:19;28.50;;;25.25;;
28796;SDS011;24974;54.444;18.560;2022-08-16T23:09:50;30.98;;;27.85;;
28796;SDS011;24974;54.444;18.560;2022-08-16T23:12:21;29.77;;;26.98;;
28796;SDS011;24974;54.444;18.560;2022-08-16T23:14:52;29.55;;;26.55;;
28796;SDS011;24974;54.444;18.560;2022-08-16T23:17:23;28.77;;;25.73;;
28796;SDS011;24974;54.444;18.560;2022-08-16T23:19:54;27.38;;;24.65;;
28796;SDS011;24974;54.444;18.560;2022-08-16T23:22:25;26.20;;;23.35;;
28796;SDS011;24974;54.444;18.560;2022-08-16T23:24:56;24.98;;;22.38;;
28796;SDS011;24974;54.444;18.560;2022-08-16T23:27:28;27.80;;;23.05;;
28796;SDS011;24974;54.444;18.560;2022-08-16T23:29:59;26.15;;;23.35;;
28796;SDS011;24974;54.444;18.560;2022-08-16T23:32:30;24.98;;;22.38;;
28796;SDS011;24974;54.444;18.560;2022-08-16T23:35:02;24.00;;;21.63;;
28796;SDS011;24974;54.444;18.560;2022-08-16T23:37:33;25.80;;;23.20;;
28796;SDS011;24974;54.444;18.560;2022-08-16T23:40:05;24.70;;;22.23;;
28796;SDS011;24974;54.444;18.560;2022-08-16T23:42:54;24.05;;;21.70;;
28796;SDS011;24974;54.444;18.560;2022-08-16T23:45:34;29.67;;;22.33;;
28796;SDS011;24974;54.444;18.560;2022-08-16T23:48:08;24.92;;;22.38;;
28796;SDS011;24974;54.444;18.560;2022-08-16T23:50:42;21.98;;;19.60;;
28796;SDS011;24974;54.444;18.560;2022-08-16T23:53:18;23.17;;;20.77;;
28796;SDS011;24974;54.444;18.560;2022-08-16T23:55:55;24.17;;;20.52;;
28796;SDS011;24974;54.444;18.560;2022-08-16T23:58:36;21.63;;;19.42;;
